sensor_id;sensor_type;location;lat;lon;timestamp;temperature;humidity
47765;DHT22;33529;49.242;8.670;2022-11-02T00:01:18;8.00;99.90
47765;DHT22;33529;49.242;8.670;2022-11-02T00:03:46;8.00;99.90
47765;DHT22;33529;49.242;8.670;2022-11-02T00:06:13;8.00;99.90
47765;DHT22;33529;49.242;8.670;2022-11-02T00:08:40;8.00;99.90
47765;DHT22;33529;49.242;8.670;2022-11-02T00:11:07;8.00;99.90
47765;DHT22;33529;49.242;8.670;2022-11-02T00:13:34;8.00;99.90
47765;DHT22;33529;49.242;8.670;2022-11-02T00:16:05;8.00;99.90
47765;DHT22;33529;49.242;8.670;2022-11-02T00:18:33;8.10;99.90
47765;DHT22;33529;49.242;8.670;2022-11-02T00:21:01;8.00;99.90
47765;DHT22;33529;49.242;8.670;2022-11-02T00:23:29;8.10;99.90
47765;DHT22;33529;49.242;8.670;2022-11-02T00:25:56;8.10;99.90
47765;DHT22;33529;49.242;8.670;2022-11-02T00:28:29;8.10;99.90
47765;DHT22;33529;49.242;8.670;2022-11-02T00:30:56;7.90;99.90
47765;DHT22;33529;49.242;8.670;2022-11-02T00:33:25;8.00;99.90
47765;DHT22;33529;49.242;8.670;2022-11-02T00:35:53;8.00;99.90
47765;DHT22;33529;49.242;8.670;2022-11-02T00:38:20;8.00;99.90
47765;DHT22;33529;49.242;8.670;2022-11-02T00:40:47;8.10;99.90
47765;DHT22;33529;49.242;8.670;2022-11-02T00:43:13;8.10;99.90
47765;DHT22;33529;49.242;8.670;2022-11-02T00:45:40;8.00;99.90
47765;DHT22;33529;49.242;8.670;2022-11-02T00:48:08;7.90;99.90
47765;DHT22;33529;49.242;8.670;2022-11-02T00:50:35;7.70;99.90
47765;DHT22;33529;49.242;8.670;2022-11-02T00:53:02;7.70;99.90
47765;DHT22;33529;49.242;8.670;2022-11-02T00:55:29;7.70;99.90
47765;DHT22;33529;49.242;8.670;2022-11-02T00:58:01;7.70;99.90
47765;DHT22;33529;49.242;8.670;2022-11-02T01:00:29;7.80;99.90
47765;DHT22;33529;49.242;8.670;2022-11-02T01:02:59;7.90;99.90
47765;DHT22;33529;49.242;8.670;2022-11-02T01:05:27;7.90;99.90
47765;DHT22;33529;49.242;8.670;2022-11-02T01:07:54;7.90;99.90
47765;DHT22;33529;49.242;8.670;2022-11-02T01:10:22;8.10;99.90
47765;DHT22;33529;49.242;8.670;2022-11-02T01:12:49;8.10;99.90
47765;DHT22;33529;49.242;8.670;2022-11-02T01:15:16;8.20;99.90
47765;DHT22;33529;49.242;8.670;2022-11-02T01:17:43;8.30;99.90
47765;DHT22;33529;49.242;8.670;2022-11-02T01:20:10;8.40;99.90
47765;DHT22;33529;49.242;8.670;2022-11-02T01:22:37;8.40;99.90
47765;DHT22;33529;49.242;8.670;2022-11-02T01:25:04;8.40;99.90
47765;DHT22;33529;49.242;8.670;2022-11-02T01:27:31;8.50;99.90
47765;DHT22;33529;49.242;8.670;2022-11-02T01:29:58;8.60;99.90
47765;DHT22;33529;49.242;8.670;2022-11-02T01:32:28;8.70;99.90
47765;DHT22;33529;49.242;8.670;2022-11-02T01:34:55;8.80;99.90
47765;DHT22;33529;49.242;8.670;2022-11-02T01:37:22;8.80;99.90
47765;DHT22;33529;49.242;8.670;2022-11-02T01:39:49;8.80;99.90
47765;DHT22;33529;49.242;8.670;2022-11-02T01:42:22;8.90;99.90
47765;DHT22;33529;49.242;8.670;2022-11-02T01:44:49;8.90;99.90
47765;DHT22;33529;49.242;8.670;2022-11-02T01:47:28;9.00;99.90
47765;DHT22;33529;49.242;8.670;2022-11-02T01:50:03;9.00;99.90
47765;DHT22;33529;49.242;8.670;2022-11-02T01:52:37;9.10;99.90
47765;DHT22;33529;49.242;8.670;2022-11-02T01:55:23;9.20;99.90
47765;DHT22;33529;49.242;8.670;2022-11-02T01:58:09;9.20;99.90
47765;DHT22;33529;49.242;8.670;2022-11-02T02:00:38;9.30;99.90
47765;DHT22;33529;49.242;8.670;2022-11-02T02:03:10;9.30;99.90
47765;DHT22;33529;49.242;8.670;2022-11-02T02:05:43;9.40;99.90
47765;DHT22;33529;49.242;8.670;2022-11-02T02:08:18;9.50;99.90
47765;DHT22;33529;49.242;8.670;2022-11-02T02:10:45;9.50;99.90
47765;DHT22;33529;49.242;8.670;2022-11-02T02:13:12;9.50;99.90
47765;DHT22;33529;49.242;8.670;2022-11-02T02:15:57;9.60;99.90
47765;DHT22;33529;49.242;8.670;2022-11-02T02:18:32;9.70;99.90
47765;DHT22;33529;49.242;8.670;2022-11-02T02:34:40;10.00;99.90
47765;DHT22;33529;49.242;8.670;2022-11-02T02:37:16;10.00;99.90
47765;DHT22;33529;49.242;8.670;2022-11-02T02:39:59;10.00;99.90
47765;DHT22;33529;49.242;8.670;2022-11-02T02:42:36;10.00;99.90
47765;DHT22;33529;49.242;8.670;2022-11-02T02:48:00;10.00;99.90
47765;DHT22;33529;49.242;8.670;2022-11-02T02:50:34;9.90;99.90
47765;DHT22;33529;49.242;8.670;2022-11-02T02:53:06;10.00;99.90
47765;DHT22;33529;49.242;8.670;2022-11-02T02:55:42;10.00;99.90
47765;DHT22;33529;49.242;8.670;2022-11-02T02:58:14;10.00;99.90
47765;DHT22;33529;49.242;8.670;2022-11-02T03:00:44;10.00;99.90
47765;DHT22;33529;49.242;8.670;2022-11-02T03:03:18;9.90;99.90
47765;DHT22;33529;49.242;8.670;2022-11-02T03:08:24;10.00;99.90
47765;DHT22;33529;49.242;8.670;2022-11-02T03:16:37;9.90;99.90
47765;DHT22;33529;49.242;8.670;2022-11-02T03:21:58;9.80;99.90
47765;DHT22;33529;49.242;8.670;2022-11-02T03:24:34;9.80;99.90
47765;DHT22;33529;49.242;8.670;2022-11-02T03:27:19;9.80;99.90
47765;DHT22;33529;49.242;8.670;2022-11-02T03:30:20;9.70;99.90
47765;DHT22;33529;49.242;8.670;2022-11-02T03:33:01;9.70;99.90
47765;DHT22;33529;49.242;8.670;2022-11-02T03:38:12;9.80;99.90
47765;DHT22;33529;49.242;8.670;2022-11-02T03:40:44;9.80;99.90
47765;DHT22;33529;49.242;8.670;2022-11-02T03:43:12;9.90;99.90
47765;DHT22;33529;49.242;8.670;2022-11-02T03:45:53;9.90;99.90
47765;DHT22;33529;49.242;8.670;2022-11-02T03:48:24;9.90;99.90
47765;DHT22;33529;49.242;8.670;2022-11-02T03:50:57;10.00;99.90
47765;DHT22;33529;49.242;8.670;2022-11-02T03:53:47;10.00;99.90
47765;DHT22;33529;49.242;8.670;2022-11-02T03:56:23;10.00;99.90
47765;DHT22;33529;49.242;8.670;2022-11-02T03:58:55;9.90;99.90
47765;DHT22;33529;49.242;8.670;2022-11-02T04:01:23;9.90;99.90
47765;DHT22;33529;49.242;8.670;2022-11-02T04:03:51;9.80;99.90
47765;DHT22;33529;49.242;8.670;2022-11-02T04:06:18;9.70;99.90
47765;DHT22;33529;49.242;8.670;2022-11-02T04:08:48;9.60;99.90
47765;DHT22;33529;49.242;8.670;2022-11-02T04:11:18;9.60;99.90
47765;DHT22;33529;49.242;8.670;2022-11-02T04:14:08;9.50;99.90
47765;DHT22;33529;49.242;8.670;2022-11-02T04:16:55;9.40;99.90
47765;DHT22;33529;49.242;8.670;2022-11-02T04:19:45;9.40;99.90
47765;DHT22;33529;49.242;8.670;2022-11-02T04:22:17;9.30;99.90
47765;DHT22;33529;49.242;8.670;2022-11-02T04:25:23;9.30;99.90
47765;DHT22;33529;49.242;8.670;2022-11-02T04:28:06;9.20;99.90
47765;DHT22;33529;49.242;8.670;2022-11-02T04:30:36;9.30;99.90
47765;DHT22;33529;49.242;8.670;2022-11-02T04:33:03;9.40;99.90
47765;DHT22;33529;49.242;8.670;2022-11-02T04:36:02;9.40;99.90
47765;DHT22;33529;49.242;8.670;2022-11-02T04:38:30;9.50;99.90
47765;DHT22;33529;49.242;8.670;2022-11-02T04:41:19;9.60;99.90
47765;DHT22;33529;49.242;8.670;2022-11-02T04:44:11;9.60;99.90
47765;DHT22;33529;49.242;8.670;2022-11-02T04:46:42;9.70;99.90
47765;DHT22;33529;49.242;8.670;2022-11-02T04:49:11;9.80;99.90
47765;DHT22;33529;49.242;8.670;2022-11-02T04:51:40;9.90;99.90
47765;DHT22;33529;49.242;8.670;2022-11-02T04:54:17;10.00;99.90
47765;DHT22;33529;49.242;8.670;2022-11-02T04:56:46;10.00;99.90
47765;DHT22;33529;49.242;8.670;2022-11-02T04:59:15;10.10;99.90
47765;DHT22;33529;49.242;8.670;2022-11-02T05:01:42;10.10;99.90
47765;DHT22;33529;49.242;8.670;2022-11-02T05:04:09;10.20;99.90
47765;DHT22;33529;49.242;8.670;2022-11-02T05:06:37;10.20;99.90
47765;DHT22;33529;49.242;8.670;2022-11-02T05:09:04;10.20;99.90
47765;DHT22;33529;49.242;8.670;2022-11-02T05:11:32;10.20;99.90
47765;DHT22;33529;49.242;8.670;2022-11-02T05:14:00;10.30;99.90
47765;DHT22;33529;49.242;8.670;2022-11-02T05:16:28;10.30;99.90
47765;DHT22;33529;49.242;8.670;2022-11-02T05:18:56;10.30;99.90
47765;DHT22;33529;49.242;8.670;2022-11-02T05:21:24;10.30;99.90
47765;DHT22;33529;49.242;8.670;2022-11-02T05:23:53;10.30;99.90
47765;DHT22;33529;49.242;8.670;2022-11-02T05:26:21;10.30;99.90
47765;DHT22;33529;49.242;8.670;2022-11-02T05:28:49;10.30;99.90
47765;DHT22;33529;49.242;8.670;2022-11-02T05:31:19;10.30;99.90
47765;DHT22;33529;49.242;8.670;2022-11-02T05:33:47;10.30;99.90
47765;DHT22;33529;49.242;8.670;2022-11-02T05:36:18;10.30;99.90
47765;DHT22;33529;49.242;8.670;2022-11-02T05:38:54;10.30;99.90
47765;DHT22;33529;49.242;8.670;2022-11-02T05:41:22;10.30;99.90
47765;DHT22;33529;49.242;8.670;2022-11-02T05:43:51;10.40;99.90
47765;DHT22;33529;49.242;8.670;2022-11-02T05:46:20;10.40;99.90
47765;DHT22;33529;49.242;8.670;2022-11-02T05:48:47;10.40;99.90
47765;DHT22;33529;49.242;8.670;2022-11-02T05:51:14;10.40;99.90
47765;DHT22;33529;49.242;8.670;2022-11-02T05:53:41;10.40;99.90
47765;DHT22;33529;49.242;8.670;2022-11-02T05:56:09;10.40;99.90
47765;DHT22;33529;49.242;8.670;2022-11-02T05:58:37;10.40;99.90
47765;DHT22;33529;49.242;8.670;2022-11-02T06:01:05;10.50;99.90
47765;DHT22;33529;49.242;8.670;2022-11-02T06:03:33;10.50;99.90
47765;DHT22;33529;49.242;8.670;2022-11-02T06:06:05;10.40;99.90
47765;DHT22;33529;49.242;8.670;2022-11-02T06:08:37;10.40;99.90
47765;DHT22;33529;49.242;8.670;2022-11-02T06:11:13;10.50;99.90
47765;DHT22;33529;49.242;8.670;2022-11-02T06:13:41;10.30;99.90
47765;DHT22;33529;49.242;8.670;2022-11-02T06:16:09;10.30;99.90
47765;DHT22;33529;49.242;8.670;2022-11-02T06:18:37;10.30;99.90
47765;DHT22;33529;49.242;8.670;2022-11-02T06:21:05;10.20;99.90
47765;DHT22;33529;49.242;8.670;2022-11-02T06:23:33;10.20;99.90
47765;DHT22;33529;49.242;8.670;2022-11-02T06:26:00;10.10;99.90
47765;DHT22;33529;49.242;8.670;2022-11-02T06:28:28;10.20;99.90
47765;DHT22;33529;49.242;8.670;2022-11-02T06:30:56;10.20;99.90
47765;DHT22;33529;49.242;8.670;2022-11-02T06:33:24;10.20;99.90
47765;DHT22;33529;49.242;8.670;2022-11-02T06:35:52;10.30;99.90
47765;DHT22;33529;49.242;8.670;2022-11-02T06:38:19;10.20;99.90
47765;DHT22;33529;49.242;8.670;2022-11-02T06:40:53;10.20;99.90
47765;DHT22;33529;49.242;8.670;2022-11-02T06:43:20;10.10;99.90
47765;DHT22;33529;49.242;8.670;2022-11-02T06:45:48;10.10;99.90
47765;DHT22;33529;49.242;8.670;2022-11-02T06:48:15;10.10;99.90
47765;DHT22;33529;49.242;8.670;2022-11-02T06:50:42;10.00;99.90
47765;DHT22;33529;49.242;8.670;2022-11-02T06:53:08;10.00;99.90
47765;DHT22;33529;49.242;8.670;2022-11-02T06:55:35;10.00;99.90
47765;DHT22;33529;49.242;8.670;2022-11-02T06:58:02;10.10;99.90
47765;DHT22;33529;49.242;8.670;2022-11-02T07:00:29;10.10;99.90
47765;DHT22;33529;49.242;8.670;2022-11-02T07:03:14;10.10;99.90
47765;DHT22;33529;49.242;8.670;2022-11-02T07:05:41;10.20;99.90
47765;DHT22;33529;49.242;8.670;2022-11-02T07:08:08;10.30;99.90
47765;DHT22;33529;49.242;8.670;2022-11-02T07:10:35;10.40;99.90
47765;DHT22;33529;49.242;8.670;2022-11-02T07:13:02;10.40;99.90
47765;DHT22;33529;49.242;8.670;2022-11-02T07:15:29;10.40;99.90
47765;DHT22;33529;49.242;8.670;2022-11-02T07:17:56;10.40;99.90
47765;DHT22;33529;49.242;8.670;2022-11-02T07:20:23;10.50;99.90
47765;DHT22;33529;49.242;8.670;2022-11-02T07:22:55;10.60;99.90
47765;DHT22;33529;49.242;8.670;2022-11-02T07:25:23;10.60;99.90
47765;DHT22;33529;49.242;8.670;2022-11-02T07:27:50;10.60;99.90
47765;DHT22;33529;49.242;8.670;2022-11-02T07:30:17;10.70;99.90
47765;DHT22;33529;49.242;8.670;2022-11-02T07:32:45;10.80;99.90
47765;DHT22;33529;49.242;8.670;2022-11-02T07:35:13;10.80;99.90
47765;DHT22;33529;49.242;8.670;2022-11-02T07:37:41;10.90;99.90
47765;DHT22;33529;49.242;8.670;2022-11-02T07:40:09;11.00;99.90
47765;DHT22;33529;49.242;8.670;2022-11-02T07:42:44;11.00;99.90
47765;DHT22;33529;49.242;8.670;2022-11-02T07:45:14;11.10;99.90
47765;DHT22;33529;49.242;8.670;2022-11-02T07:47:45;11.10;99.90
47765;DHT22;33529;49.242;8.670;2022-11-02T07:50:14;11.10;99.90
47765;DHT22;33529;49.242;8.670;2022-11-02T07:52:45;11.10;99.90
47765;DHT22;33529;49.242;8.670;2022-11-02T07:55:17;11.10;99.90
47765;DHT22;33529;49.242;8.670;2022-11-02T07:58:01;11.00;99.90
47765;DHT22;33529;49.242;8.670;2022-11-02T08:00:31;11.10;99.90
47765;DHT22;33529;49.242;8.670;2022-11-02T08:02:59;11.20;99.90
47765;DHT22;33529;49.242;8.670;2022-11-02T08:05:28;11.30;99.90
47765;DHT22;33529;49.242;8.670;2022-11-02T08:08:11;11.30;99.90
47765;DHT22;33529;49.242;8.670;2022-11-02T08:10:39;11.40;99.90
47765;DHT22;33529;49.242;8.670;2022-11-02T08:13:08;11.40;99.90
47765;DHT22;33529;49.242;8.670;2022-11-02T08:15:35;11.50;99.90
47765;DHT22;33529;49.242;8.670;2022-11-02T08:18:08;11.50;99.90
47765;DHT22;33529;49.242;8.670;2022-11-02T08:20:37;11.50;99.90
47765;DHT22;33529;49.242;8.670;2022-11-02T08:23:05;11.50;99.90
47765;DHT22;33529;49.242;8.670;2022-11-02T08:25:35;11.50;99.90
47765;DHT22;33529;49.242;8.670;2022-11-02T08:28:02;11.50;99.90
47765;DHT22;33529;49.242;8.670;2022-11-02T08:30:30;11.40;99.90
47765;DHT22;33529;49.242;8.670;2022-11-02T08:33:05;11.40;99.90
47765;DHT22;33529;49.242;8.670;2022-11-02T08:35:33;11.50;99.90
47765;DHT22;33529;49.242;8.670;2022-11-02T08:38:03;11.50;99.90
47765;DHT22;33529;49.242;8.670;2022-11-02T08:40:31;11.50;99.90
47765;DHT22;33529;49.242;8.670;2022-11-02T08:43:05;11.50;99.90
47765;DHT22;33529;49.242;8.670;2022-11-02T08:45:34;11.50;99.90
47765;DHT22;33529;49.242;8.670;2022-11-02T08:48:21;11.50;99.90
47765;DHT22;33529;49.242;8.670;2022-11-02T08:50:48;11.50;99.90
47765;DHT22;33529;49.242;8.670;2022-11-02T08:53:15;11.50;99.90
47765;DHT22;33529;49.242;8.670;2022-11-02T08:55:42;11.50;99.90
47765;DHT22;33529;49.242;8.670;2022-11-02T08:58:10;11.50;99.90
47765;DHT22;33529;49.242;8.670;2022-11-02T09:00:37;11.40;99.90
47765;DHT22;33529;49.242;8.670;2022-11-02T09:03:11;11.40;99.90
47765;DHT22;33529;49.242;8.670;2022-11-02T09:05:41;11.40;99.90
47765;DHT22;33529;49.242;8.670;2022-11-02T09:08:14;11.40;99.90
47765;DHT22;33529;49.242;8.670;2022-11-02T09:10:43;11.40;99.90
47765;DHT22;33529;49.242;8.670;2022-11-02T09:13:12;11.50;99.90
47765;DHT22;33529;49.242;8.670;2022-11-02T09:15:41;11.60;99.90
47765;DHT22;33529;49.242;8.670;2022-11-02T09:18:08;11.60;99.90
47765;DHT22;33529;49.242;8.670;2022-11-02T09:20:35;11.60;99.90
47765;DHT22;33529;49.242;8.670;2022-11-02T09:23:02;11.60;99.90
47765;DHT22;33529;49.242;8.670;2022-11-02T09:25:29;11.70;99.90
47765;DHT22;33529;49.242;8.670;2022-11-02T09:27:56;11.70;99.90
47765;DHT22;33529;49.242;8.670;2022-11-02T09:30:24;11.80;99.90
47765;DHT22;33529;49.242;8.670;2022-11-02T09:32:55;11.80;99.90
47765;DHT22;33529;49.242;8.670;2022-11-02T09:35:23;11.90;99.90
47765;DHT22;33529;49.242;8.670;2022-11-02T09:37:50;11.90;99.90
47765;DHT22;33529;49.242;8.670;2022-11-02T09:40:21;11.90;99.90
47765;DHT22;33529;49.242;8.670;2022-11-02T09:43:02;12.00;99.90
47765;DHT22;33529;49.242;8.670;2022-11-02T09:45:40;12.10;99.90
47765;DHT22;33529;49.242;8.670;2022-11-02T09:48:16;12.10;99.90
47765;DHT22;33529;49.242;8.670;2022-11-02T09:56:28;12.20;99.90
47765;DHT22;33529;49.242;8.670;2022-11-02T09:59:05;12.30;99.90
47765;DHT22;33529;49.242;8.670;2022-11-02T10:15:38;13.00;99.90
47765;DHT22;33529;49.242;8.670;2022-11-02T10:18:12;13.10;99.90
47765;DHT22;33529;49.242;8.670;2022-11-02T10:20:50;13.20;99.90
47765;DHT22;33529;49.242;8.670;2022-11-02T10:23:23;13.30;99.90
47765;DHT22;33529;49.242;8.670;2022-11-02T10:25:51;13.40;99.90
47765;DHT22;33529;49.242;8.670;2022-11-02T10:28:23;13.30;99.90
47765;DHT22;33529;49.242;8.670;2022-11-02T10:30:53;13.30;99.90
47765;DHT22;33529;49.242;8.670;2022-11-02T10:33:25;13.20;99.90
47765;DHT22;33529;49.242;8.670;2022-11-02T10:47:13;13.30;99.90
47765;DHT22;33529;49.242;8.670;2022-11-02T10:49:53;13.60;99.90
47765;DHT22;33529;49.242;8.670;2022-11-02T10:52:24;13.60;99.90
47765;DHT22;33529;49.242;8.670;2022-11-02T10:54:54;13.60;99.90
47765;DHT22;33529;49.242;8.670;2022-11-02T10:57:24;13.60;99.90
47765;DHT22;33529;49.242;8.670;2022-11-02T11:03:09;13.50;99.90
47765;DHT22;33529;49.242;8.670;2022-11-02T11:05:56;13.40;99.90
47765;DHT22;33529;49.242;8.670;2022-11-02T11:08:42;13.40;99.90
47765;DHT22;33529;49.242;8.670;2022-11-02T11:11:13;13.60;99.90
47765;DHT22;33529;49.242;8.670;2022-11-02T11:13:51;14.00;99.90
47765;DHT22;33529;49.242;8.670;2022-11-02T11:16:51;14.10;99.90
47765;DHT22;33529;49.242;8.670;2022-11-02T11:22:21;14.20;99.90
47765;DHT22;33529;49.242;8.670;2022-11-02T11:24:49;14.30;99.90
47765;DHT22;33529;49.242;8.670;2022-11-02T11:27:22;14.20;99.90
47765;DHT22;33529;49.242;8.670;2022-11-02T11:29:53;14.10;99.90
47765;DHT22;33529;49.242;8.670;2022-11-02T11:32:26;14.10;99.90
47765;DHT22;33529;49.242;8.670;2022-11-02T11:35:02;14.20;99.90
47765;DHT22;33529;49.242;8.670;2022-11-02T11:37:29;14.30;99.90
47765;DHT22;33529;49.242;8.670;2022-11-02T11:40:05;14.30;99.90
47765;DHT22;33529;49.242;8.670;2022-11-02T11:42:41;14.30;99.90
47765;DHT22;33529;49.242;8.670;2022-11-02T11:45:27;14.30;99.90
47765;DHT22;33529;49.242;8.670;2022-11-02T11:48:01;14.40;99.90
47765;DHT22;33529;49.242;8.670;2022-11-02T11:50:29;14.50;99.90
47765;DHT22;33529;49.242;8.670;2022-11-02T11:53:23;14.50;99.90
47765;DHT22;33529;49.242;8.670;2022-11-02T11:55:58;14.50;99.90
47765;DHT22;33529;49.242;8.670;2022-11-02T11:58:30;14.60;99.90
47765;DHT22;33529;49.242;8.670;2022-11-02T12:01:02;14.70;99.90
47765;DHT22;33529;49.242;8.670;2022-11-02T12:03:49;14.70;99.90
47765;DHT22;33529;49.242;8.670;2022-11-02T12:06:40;14.70;99.90
47765;DHT22;33529;49.242;8.670;2022-11-02T12:09:30;14.80;99.90
47765;DHT22;33529;49.242;8.670;2022-11-02T12:15:00;15.10;99.90
47765;DHT22;33529;49.242;8.670;2022-11-02T12:31:39;16.00;99.90
47765;DHT22;33529;49.242;8.670;2022-11-02T12:34:46;15.70;99.90
47765;DHT22;33529;49.242;8.670;2022-11-02T12:38:11;15.60;99.90
47765;DHT22;33529;49.242;8.670;2022-11-02T12:41:11;15.60;99.90
47765;DHT22;33529;49.242;8.670;2022-11-02T12:43:47;15.70;99.90
47765;DHT22;33529;49.242;8.670;2022-11-02T12:46:30;15.80;99.90
47765;DHT22;33529;49.242;8.670;2022-11-02T12:54:20;15.70;99.90
47765;DHT22;33529;49.242;8.670;2022-11-02T12:56:49;15.60;99.90
47765;DHT22;33529;49.242;8.670;2022-11-02T12:59:28;15.50;99.90
47765;DHT22;33529;49.242;8.670;2022-11-02T13:02:26;15.50;99.90
47765;DHT22;33529;49.242;8.670;2022-11-02T13:05:07;15.40;99.90
47765;DHT22;33529;49.242;8.670;2022-11-02T13:07:45;15.50;99.90
47765;DHT22;33529;49.242;8.670;2022-11-02T13:10:20;15.50;99.90
47765;DHT22;33529;49.242;8.670;2022-11-02T13:12:50;15.40;99.90
47765;DHT22;33529;49.242;8.670;2022-11-02T13:15:21;15.40;99.90
47765;DHT22;33529;49.242;8.670;2022-11-02T13:17:55;15.40;99.90
47765;DHT22;33529;49.242;8.670;2022-11-02T13:20:32;15.40;99.90
47765;DHT22;33529;49.242;8.670;2022-11-02T13:23:06;15.40;99.90
47765;DHT22;33529;49.242;8.670;2022-11-02T13:25:48;15.40;99.90
47765;DHT22;33529;49.242;8.670;2022-11-02T13:28:40;15.40;99.90
47765;DHT22;33529;49.242;8.670;2022-11-02T13:31:29;15.30;99.90
47765;DHT22;33529;49.242;8.670;2022-11-02T13:33:57;15.30;99.90
47765;DHT22;33529;49.242;8.670;2022-11-02T13:36:26;15.30;99.90
47765;DHT22;33529;49.242;8.670;2022-11-02T13:38:58;15.20;99.90
47765;DHT22;33529;49.242;8.670;2022-11-02T13:50:39;15.10;99.90
47765;DHT22;33529;49.242;8.670;2022-11-02T13:53:14;15.10;99.90
47765;DHT22;33529;49.242;8.670;2022-11-02T13:55:55;15.10;99.90
47765;DHT22;33529;49.242;8.670;2022-11-02T13:58:29;15.00;99.90
47765;DHT22;33529;49.242;8.670;2022-11-02T14:01:05;14.90;99.90
47765;DHT22;33529;49.242;8.670;2022-11-02T14:03:57;14.80;99.90
47765;DHT22;33529;49.242;8.670;2022-11-02T14:06:29;14.70;99.90
47765;DHT22;33529;49.242;8.670;2022-11-02T14:09:00;14.60;99.90
47765;DHT22;33529;49.242;8.670;2022-11-02T14:14:22;14.70;99.90
47765;DHT22;33529;49.242;8.670;2022-11-02T14:46:05;14.50;99.90
47765;DHT22;33529;49.242;8.670;2022-11-02T14:48:47;14.40;99.90
47765;DHT22;33529;49.242;8.670;2022-11-02T14:51:30;14.30;99.90
47765;DHT22;33529;49.242;8.670;2022-11-02T14:54:02;14.20;99.90
47765;DHT22;33529;49.242;8.670;2022-11-02T14:56:52;14.10;99.90
47765;DHT22;33529;49.242;8.670;2022-11-02T14:59:31;14.10;99.90
47765;DHT22;33529;49.242;8.670;2022-11-02T15:04:49;14.00;99.90
47765;DHT22;33529;49.242;8.670;2022-11-02T15:07:21;14.10;99.90
47765;DHT22;33529;49.242;8.670;2022-11-02T15:09:54;14.10;99.90
47765;DHT22;33529;49.242;8.670;2022-11-02T15:12:39;14.00;99.90
47765;DHT22;33529;49.242;8.670;2022-11-02T15:20:19;13.70;99.90
47765;DHT22;33529;49.242;8.670;2022-11-02T15:22:51;13.70;99.90
47765;DHT22;33529;49.242;8.670;2022-11-02T15:25:27;13.60;99.90
47765;DHT22;33529;49.242;8.670;2022-11-02T15:27:56;13.60;99.90
47765;DHT22;33529;49.242;8.670;2022-11-02T15:30:29;13.50;99.90
47765;DHT22;33529;49.242;8.670;2022-11-02T15:33:04;13.40;99.90
47765;DHT22;33529;49.242;8.670;2022-11-02T15:35:36;13.30;99.90
47765;DHT22;33529;49.242;8.670;2022-11-02T15:38:04;13.20;99.90
47765;DHT22;33529;49.242;8.670;2022-11-02T15:46:42;12.90;99.90
47765;DHT22;33529;49.242;8.670;2022-11-02T15:52:29;12.60;99.90
47765;DHT22;33529;49.242;8.670;2022-11-02T15:55:25;12.50;99.90
47765;DHT22;33529;49.242;8.670;2022-11-02T15:58:00;12.40;99.90
47765;DHT22;33529;49.242;8.670;2022-11-02T16:00:31;12.30;99.90
47765;DHT22;33529;49.242;8.670;2022-11-02T16:03:08;12.30;99.90
47765;DHT22;33529;49.242;8.670;2022-11-02T16:05:44;12.20;99.90
47765;DHT22;33529;49.242;8.670;2022-11-02T16:08:23;12.00;99.90
47765;DHT22;33529;49.242;8.670;2022-11-02T16:11:02;11.90;99.90
47765;DHT22;33529;49.242;8.670;2022-11-02T16:13:32;11.90;99.90
47765;DHT22;33529;49.242;8.670;2022-11-02T16:16:20;11.80;99.90
47765;DHT22;33529;49.242;8.670;2022-11-02T16:18:49;11.70;99.90
47765;DHT22;33529;49.242;8.670;2022-11-02T16:21:18;11.50;99.90
47765;DHT22;33529;49.242;8.670;2022-11-02T16:23:48;11.50;99.90
47765;DHT22;33529;49.242;8.670;2022-11-02T16:26:21;11.40;99.90
47765;DHT22;33529;49.242;8.670;2022-11-02T16:28:53;11.40;99.90
47765;DHT22;33529;49.242;8.670;2022-11-02T16:31:25;11.30;99.90
47765;DHT22;33529;49.242;8.670;2022-11-02T16:34:14;11.10;99.90
47765;DHT22;33529;49.242;8.670;2022-11-02T16:36:42;11.10;99.90
47765;DHT22;33529;49.242;8.670;2022-11-02T16:39:16;11.00;99.90
47765;DHT22;33529;49.242;8.670;2022-11-02T16:41:49;11.10;99.90
47765;DHT22;33529;49.242;8.670;2022-11-02T16:44:20;11.10;99.90
47765;DHT22;33529;49.242;8.670;2022-11-02T16:46:54;11.10;99.90
47765;DHT22;33529;49.242;8.670;2022-11-02T16:49:24;11.00;99.90
47765;DHT22;33529;49.242;8.670;2022-11-02T16:51:57;10.90;99.90
47765;DHT22;33529;49.242;8.670;2022-11-02T16:56:52;10.60;99.90
47765;DHT22;33529;49.242;8.670;2022-11-02T16:59:20;10.50;99.90
47765;DHT22;33529;49.242;8.670;2022-11-02T17:01:48;10.40;99.90
47765;DHT22;33529;49.242;8.670;2022-11-02T17:04:17;10.40;99.90
47765;DHT22;33529;49.242;8.670;2022-11-02T17:06:47;10.40;99.90
47765;DHT22;33529;49.242;8.670;2022-11-02T17:09:29;10.40;99.90
47765;DHT22;33529;49.242;8.670;2022-11-02T17:12:05;10.40;99.90
47765;DHT22;33529;49.242;8.670;2022-11-02T17:14:33;10.40;99.90
47765;DHT22;33529;49.242;8.670;2022-11-02T17:17:26;10.40;99.90
47765;DHT22;33529;49.242;8.670;2022-11-02T17:20:15;10.30;99.90
47765;DHT22;33529;49.242;8.670;2022-11-02T17:22:50;10.30;99.90
47765;DHT22;33529;49.242;8.670;2022-11-02T17:25:30;10.40;99.90
47765;DHT22;33529;49.242;8.670;2022-11-02T17:28:03;10.40;99.90
47765;DHT22;33529;49.242;8.670;2022-11-02T17:30:43;10.30;99.90
47765;DHT22;33529;49.242;8.670;2022-11-02T17:33:21;10.30;99.90
47765;DHT22;33529;49.242;8.670;2022-11-02T17:35:51;10.20;99.90
47765;DHT22;33529;49.242;8.670;2022-11-02T17:38:22;10.20;99.90
47765;DHT22;33529;49.242;8.670;2022-11-02T17:40:50;10.20;99.90
47765;DHT22;33529;49.242;8.670;2022-11-02T17:43:19;10.20;99.90
47765;DHT22;33529;49.242;8.670;2022-11-02T17:45:53;10.30;99.90
47765;DHT22;33529;49.242;8.670;2022-11-02T17:48:20;10.30;99.90
47765;DHT22;33529;49.242;8.670;2022-11-02T17:50:51;10.20;99.90
47765;DHT22;33529;49.242;8.670;2022-11-02T17:53:18;10.20;99.90
47765;DHT22;33529;49.242;8.670;2022-11-02T17:55:45;10.00;99.90
47765;DHT22;33529;49.242;8.670;2022-11-02T17:58:12;9.90;99.90
47765;DHT22;33529;49.242;8.670;2022-11-02T18:00:40;9.80;99.90
47765;DHT22;33529;49.242;8.670;2022-11-02T18:03:15;9.80;99.90
47765;DHT22;33529;49.242;8.670;2022-11-02T18:05:45;9.80;99.90
47765;DHT22;33529;49.242;8.670;2022-11-02T18:08:17;9.80;99.90
47765;DHT22;33529;49.242;8.670;2022-11-02T18:10:46;9.80;99.90
47765;DHT22;33529;49.242;8.670;2022-11-02T18:13:16;9.80;99.90
47765;DHT22;33529;49.242;8.670;2022-11-02T18:15:43;9.80;99.90
47765;DHT22;33529;49.242;8.670;2022-11-02T18:18:10;9.80;99.90
47765;DHT22;33529;49.242;8.670;2022-11-02T18:20:38;9.70;99.90
47765;DHT22;33529;49.242;8.670;2022-11-02T18:23:14;9.70;99.90
47765;DHT22;33529;49.242;8.670;2022-11-02T18:25:42;9.80;99.90
47765;DHT22;33529;49.242;8.670;2022-11-02T18:28:09;9.60;99.90
47765;DHT22;33529;49.242;8.670;2022-11-02T18:30:40;9.60;99.90
47765;DHT22;33529;49.242;8.670;2022-11-02T18:33:07;9.50;99.90
47765;DHT22;33529;49.242;8.670;2022-11-02T18:35:39;9.40;99.90
47765;DHT22;33529;49.242;8.670;2022-11-02T18:38:06;9.30;99.90
47765;DHT22;33529;49.242;8.670;2022-11-02T18:40:33;9.20;99.90